createdAt,value
2024-05-09T00:00:46.876Z,19.60
2024-05-09T00:03:14.640Z,18.83
2024-05-09T00:05:43.768Z,22.75
2024-05-09T00:08:12.226Z,23.23
2024-05-09T00:10:41.243Z,22.90
2024-05-09T00:13:11.008Z,19.20
2024-05-09T00:15:39.251Z,19.95
2024-05-09T00:18:07.968Z,20.02
2024-05-09T00:20:39.615Z,20.17
2024-05-09T00:23:13.744Z,24.67
2024-05-09T00:25:45.557Z,23.50
2024-05-09T00:28:13.376Z,22.48
2024-05-09T00:30:41.475Z,19.60
2024-05-09T00:33:10.541Z,22.77
2024-05-09T00:35:39.746Z,20.20
2024-05-09T00:38:07.643Z,18.85
2024-05-09T00:40:41.998Z,20.23
2024-05-09T00:43:12.721Z,19.80
2024-05-09T00:45:41.538Z,21.42
2024-05-09T00:48:13.457Z,22.67
2024-05-09T00:50:45.231Z,20.73
2024-05-09T00:53:15.125Z,22.92
2024-05-09T00:55:44.236Z,20.35
2024-05-09T00:58:15.214Z,19.10
2024-05-09T01:00:43.309Z,20.58
2024-05-09T01:03:13.080Z,25.60
2024-05-09T01:05:42.872Z,23.90
2024-05-09T01:08:11.694Z,20.15
2024-05-09T01:10:42.614Z,23.13
2024-05-09T01:13:12.784Z,21.58
2024-05-09T01:15:40.660Z,21.83
2024-05-09T01:18:12.755Z,20.77
2024-05-09T01:20:44.168Z,19.92
2024-05-09T01:23:15.655Z,21.80
2024-05-09T01:25:46.132Z,24.58
2024-05-09T01:28:15.056Z,23.75
2024-05-09T01:30:42.799Z,25.42
2024-05-09T01:33:12.105Z,24.73
2024-05-09T01:35:41.662Z,25.67
2024-05-09T01:38:13.202Z,21.52
2024-05-09T01:40:41.397Z,23.20
2024-05-09T01:43:10.286Z,21.42
2024-05-09T01:45:40.226Z,27.20
2024-05-09T01:48:09.399Z,24.73
2024-05-09T01:50:40.956Z,23.65
2024-05-09T01:53:12.518Z,24.77
2024-05-09T01:55:40.788Z,23.33
2024-05-09T01:58:09.352Z,27.00
2024-05-09T02:00:41.077Z,25.52
2024-05-09T02:03:15.021Z,23.10
2024-05-09T02:05:46.959Z,25.40
2024-05-09T02:08:24.422Z,24.50
2024-05-09T02:10:52.227Z,24.27
2024-05-09T02:13:19.905Z,22.95
2024-05-09T02:15:52.039Z,24.85
2024-05-09T02:18:22.688Z,24.45
2024-05-09T02:20:50.509Z,23.27
2024-05-09T02:23:18.405Z,26.65
2024-05-09T02:25:46.106Z,24.83
2024-05-09T02:28:13.801Z,23.42
2024-05-09T02:30:42.551Z,23.02
2024-05-09T02:33:12.762Z,24.95
2024-05-09T02:35:42.758Z,27.45
2024-05-09T02:38:11.876Z,25.42
2024-05-09T02:40:40.470Z,26.98
2024-05-09T02:43:10.546Z,28.15
2024-05-09T02:45:40.058Z,27.42
2024-05-09T02:48:11.423Z,26.50
2024-05-09T02:50:40.818Z,26.17
2024-05-09T02:53:09.547Z,23.73
2024-05-09T02:55:38.700Z,23.75
2024-05-09T02:58:10.355Z,25.65
2024-05-09T03:00:41.568Z,24.65
2024-05-09T03:03:13.544Z,25.45
2024-05-09T03:05:46.505Z,22.70
2024-05-09T03:08:14.668Z,22.50
2024-05-09T03:10:42.818Z,24.70
2024-05-09T03:13:13.810Z,24.73
2024-05-09T03:15:43.442Z,23.05
2024-05-09T03:18:11.813Z,25.08
2024-05-09T03:20:40.395Z,23.77
2024-05-09T03:23:09.549Z,25.02
2024-05-09T03:25:38.761Z,23.17
2024-05-09T03:28:07.260Z,25.60
2024-05-09T03:30:40.379Z,24.23
2024-05-09T03:33:16.640Z,22.33
2024-05-09T03:35:45.897Z,24.23
2024-05-09T03:38:14.165Z,22.27
2024-05-09T03:40:46.429Z,27.10
2024-05-09T03:43:14.476Z,24.15
2024-05-09T03:45:43.007Z,21.73
2024-05-09T03:48:11.063Z,25.33
2024-05-09T03:50:39.019Z,24.58
2024-05-09T03:53:11.085Z,26.88
2024-05-09T03:55:38.978Z,22.00
2024-05-09T03:58:08.371Z,29.02
2024-05-09T04:00:39.210Z,24.77
2024-05-09T04:03:10.835Z,27.23
2024-05-09T04:05:42.447Z,24.83
2024-05-09T04:08:14.893Z,28.73
2024-05-09T04:10:42.973Z,28.58
2024-05-09T04:13:11.392Z,29.85
2024-05-09T04:15:39.634Z,28.23
2024-05-09T04:18:07.818Z,24.88
2024-05-09T04:20:39.237Z,21.25
2024-05-09T04:23:13.883Z,25.13
2024-05-09T04:25:44.556Z,29.67
2024-05-09T04:28:13.563Z,25.55
2024-05-09T04:30:42.148Z,28.35
2024-05-09T04:33:13.351Z,29.13
2024-05-09T04:35:43.712Z,25.45
2024-05-09T04:38:13.479Z,26.92
2024-05-09T04:40:41.460Z,27.23
2024-05-09T04:43:15.588Z,28.52
2024-05-09T04:45:43.868Z,26.75
2024-05-09T04:48:11.787Z,26.98
2024-05-09T04:50:40.075Z,25.35
2024-05-09T04:53:10.363Z,22.17
2024-05-09T04:55:40.288Z,24.52
2024-05-09T04:58:09.394Z,23.65
2024-05-09T05:00:39.617Z,23.42
2024-05-09T05:03:13.229Z,26.67
2024-05-09T05:05:44.828Z,22.90
2024-05-09T05:08:18.871Z,22.05
2024-05-09T05:10:48.240Z,25.20
2024-05-09T05:13:18.319Z,21.15
2024-05-09T05:15:47.550Z,19.05
2024-05-09T05:18:16.097Z,21.42
2024-05-09T05:20:44.551Z,20.83
2024-05-09T05:23:14.870Z,23.48
2024-05-09T05:25:42.880Z,21.38
2024-05-09T05:28:11.060Z,21.23
2024-05-09T05:30:39.185Z,18.15
2024-05-09T05:33:10.147Z,21.20
2024-05-09T05:35:38.216Z,22.20
2024-05-09T05:38:07.338Z,21.15
2024-05-09T05:40:38.312Z,19.67
2024-05-09T05:43:11.302Z,18.23
2024-05-09T05:45:39.423Z,19.02
2024-05-09T05:48:07.935Z,17.85
2024-05-09T05:50:37.914Z,19.83
2024-05-09T05:53:08.069Z,22.90
2024-05-09T05:55:37.205Z,21.65
2024-05-09T05:58:05.422Z,17.58
2024-05-09T06:00:38.946Z,16.90
2024-05-09T06:03:10.056Z,16.80
2024-05-09T06:05:44.007Z,17.17
2024-05-09T06:08:12.397Z,19.08
2024-05-09T06:10:41.371Z,17.08
2024-05-09T06:13:13.494Z,14.93
2024-05-09T06:15:42.206Z,15.73
2024-05-09T06:18:11.473Z,13.68
2024-05-09T06:20:43.271Z,14.52
2024-05-09T06:23:12.776Z,17.02
2024-05-09T06:25:42.300Z,13.77
2024-05-09T06:28:11.459Z,17.75
2024-05-09T06:30:42.265Z,13.77
2024-05-09T06:33:13.400Z,16.98
2024-05-09T06:35:44.172Z,13.47
2024-05-09T06:38:12.485Z,12.77
2024-05-09T06:40:42.455Z,12.63
2024-05-09T06:43:17.676Z,14.55
2024-05-09T06:45:48.849Z,17.42
2024-05-09T06:48:21.167Z,13.85
2024-05-09T06:50:50.358Z,12.95
2024-05-09T06:53:21.492Z,16.08
2024-05-09T06:55:49.909Z,12.30
2024-05-09T06:58:17.637Z,14.80
2024-05-09T07:00:45.350Z,12.98
2024-05-09T07:03:17.124Z,14.05
2024-05-09T07:05:48.347Z,13.27
2024-05-09T07:08:17.926Z,13.75
2024-05-09T07:10:45.997Z,15.90
2024-05-09T07:13:15.084Z,13.02
2024-05-09T07:15:43.813Z,14.55
2024-05-09T07:18:13.206Z,11.20
2024-05-09T07:20:41.722Z,12.00
2024-05-09T07:23:10.607Z,11.32
2024-05-09T07:25:39.625Z,12.30
2024-05-09T07:28:15.495Z,10.45
2024-05-09T07:30:43.816Z,10.82
2024-05-09T07:33:23.163Z,11.48
2024-05-09T07:35:52.365Z,10.65
2024-05-09T07:38:20.317Z,8.05
2024-05-09T07:40:48.498Z,12.40
2024-05-09T07:43:16.556Z,13.68
2024-05-09T07:45:51.897Z,8.80
2024-05-09T07:52:38.428Z,7.75
2024-05-09T07:53:49.155Z,7.68
2024-05-09T07:56:22.590Z,10.00
2024-05-09T07:58:52.622Z,7.43
2024-05-09T08:01:21.164Z,9.05
2024-05-09T08:03:50.671Z,6.45
2024-05-09T08:06:18.574Z,9.70
2024-05-09T08:08:47.243Z,6.95
2024-05-09T08:11:15.236Z,8.20
2024-05-09T08:13:43.077Z,7.65
2024-05-09T08:16:10.784Z,8.75
2024-05-09T08:18:39.834Z,9.38
2024-05-09T08:21:07.681Z,9.55
2024-05-09T08:23:36.430Z,8.07
2024-05-09T08:26:04.414Z,9.20
2024-05-09T08:28:32.026Z,10.25
2024-05-09T08:31:01.640Z,8.43
2024-05-09T08:33:31.785Z,7.82
2024-05-09T08:35:59.596Z,8.93
2024-05-09T08:38:27.193Z,8.75
2024-05-09T08:40:55.454Z,9.15
2024-05-09T08:43:24.551Z,9.48
2024-05-09T08:45:52.406Z,9.52
2024-05-09T08:48:23.843Z,8.82
2024-05-09T08:50:52.805Z,10.48
2024-05-09T08:53:20.920Z,10.13
2024-05-09T08:55:51.002Z,8.27
2024-05-09T08:58:21.886Z,8.25
2024-05-09T09:00:49.993Z,7.95
2024-05-09T09:03:19.238Z,7.55
2024-05-09T09:06:04.596Z,9.10
2024-05-09T09:08:32.500Z,9.20
2024-05-09T09:11:00.834Z,8.85
2024-05-09T09:13:29.065Z,9.20
2024-05-09T09:16:01.382Z,9.35
2024-05-09T09:18:34.577Z,8.45
2024-05-09T09:21:03.309Z,9.43
2024-05-09T09:23:31.441Z,9.57
2024-05-09T09:25:59.926Z,10.68
2024-05-09T09:28:27.757Z,9.48
2024-05-09T09:31:01.373Z,7.65
2024-05-09T09:33:32.951Z,8.57
2024-05-09T09:36:05.733Z,9.57
2024-05-09T09:38:37.050Z,8.15
2024-05-09T09:41:08.317Z,10.23
2024-05-09T09:43:36.996Z,9.50
2024-05-09T09:46:08.628Z,10.02
2024-05-09T09:48:40.160Z,7.80
2024-05-09T09:51:08.104Z,10.73
2024-05-09T09:53:38.208Z,10.88
2024-05-09T09:56:07.584Z,10.88
2024-05-09T09:58:38.451Z,8.68
2024-05-09T10:01:06.289Z,9.05
2024-05-09T10:03:34.349Z,8.02
2024-05-09T10:06:03.708Z,10.05
2024-05-09T10:08:31.584Z,9.07
2024-05-09T10:10:59.339Z,8.85
2024-05-09T10:13:35.312Z,9.43
2024-05-09T10:16:10.001Z,9.07
2024-05-09T10:18:39.075Z,10.63
2024-05-09T10:21:20.347Z,11.40
2024-05-09T10:24:00.371Z,10.55
2024-05-09T10:26:35.747Z,9.77
2024-05-09T10:29:18.272Z,7.63
2024-05-09T10:31:47.286Z,8.32
2024-05-09T10:34:22.722Z,11.68
2024-05-09T10:36:54.652Z,9.10
2024-05-09T10:39:22.864Z,11.15
2024-05-09T10:41:50.604Z,10.07
2024-05-09T10:44:18.629Z,9.70
2024-05-09T10:46:46.431Z,9.65
2024-05-09T10:49:15.178Z,23.02
2024-05-09T10:51:45.321Z,11.25
2024-05-09T10:54:13.047Z,10.50
2024-05-09T10:56:42.087Z,11.77
2024-05-09T10:59:09.758Z,10.57
2024-05-09T11:01:37.499Z,9.05
2024-05-09T11:04:05.769Z,11.68
2024-05-09T11:06:35.962Z,10.73
2024-05-09T11:09:03.894Z,10.82
2024-05-09T11:11:32.049Z,10.73
2024-05-09T11:13:59.785Z,12.35
2024-05-09T11:16:27.533Z,10.70
2024-05-09T11:18:58.961Z,10.65
2024-05-09T11:21:27.151Z,11.13
2024-05-09T11:23:55.269Z,13.45
2024-05-09T11:26:25.122Z,12.05
2024-05-09T11:28:52.875Z,11.00
2024-05-09T11:31:20.842Z,9.15
2024-05-09T11:33:48.909Z,13.90
2024-05-09T11:36:16.737Z,10.65
2024-05-09T11:38:44.446Z,9.13
2024-05-09T11:41:18.937Z,10.65
2024-05-09T11:43:46.864Z,9.52
2024-05-09T11:46:14.781Z,12.30
2024-05-09T11:48:42.807Z,10.63
2024-05-09T11:51:10.611Z,9.43
2024-05-09T11:53:38.239Z,12.80
2024-05-09T11:56:06.056Z,11.75
2024-05-09T11:58:36.767Z,12.43
2024-05-09T12:01:04.780Z,11.52
2024-05-09T12:03:35.287Z,13.07
2024-05-09T12:06:03.829Z,10.88
2024-05-09T12:08:31.579Z,11.38
2024-05-09T12:10:59.394Z,11.57
2024-05-09T12:13:27.316Z,11.85
2024-05-09T12:15:54.978Z,10.18
2024-05-09T12:18:22.631Z,9.93
2024-05-09T12:20:50.354Z,10.90
2024-05-09T12:23:18.113Z,11.65
2024-05-09T12:25:45.819Z,11.43
2024-05-09T12:28:15.829Z,11.25
2024-05-09T12:30:43.642Z,13.77
2024-05-09T12:33:13.126Z,8.73
2024-05-09T12:35:44.410Z,11.77
2024-05-09T12:38:18.104Z,10.23
2024-05-09T12:40:45.727Z,8.85
2024-05-09T12:43:13.503Z,10.10
2024-05-09T12:45:41.518Z,8.43
2024-05-09T12:48:13.058Z,11.80
2024-05-09T12:50:41.746Z,8.60
2024-05-09T12:53:09.919Z,12.00
2024-05-09T12:55:44.915Z,9.30
2024-05-09T12:58:23.620Z,9.38
2024-05-09T13:00:52.155Z,9.48
2024-05-09T13:03:20.589Z,12.15
2024-05-09T13:05:51.724Z,8.52
2024-05-09T13:08:20.502Z,9.50
2024-05-09T13:10:48.475Z,10.00
2024-05-09T13:13:16.523Z,10.13
2024-05-09T13:15:44.621Z,11.35
2024-05-09T13:18:12.315Z,10.65
2024-05-09T13:20:40.404Z,9.20
2024-05-09T13:23:08.752Z,7.55
2024-05-09T13:25:37.915Z,8.82
2024-05-09T13:28:06.982Z,7.53
2024-05-09T13:30:40.284Z,8.60
2024-05-09T13:33:13.979Z,9.05
2024-05-09T13:35:46.823Z,10.43
2024-05-09T13:38:21.282Z,9.82
2024-05-09T13:40:50.414Z,8.98
2024-05-09T13:43:18.882Z,7.95
2024-05-09T13:45:47.272Z,8.07
2024-05-09T13:48:15.089Z,7.72
2024-05-09T13:50:43.019Z,7.15
2024-05-09T13:53:10.693Z,8.00
2024-05-09T13:55:39.394Z,8.18
2024-05-09T13:58:08.483Z,8.10
2024-05-09T14:00:45.161Z,8.00
2024-05-09T14:03:18.793Z,8.95
2024-05-09T14:05:50.403Z,6.43
2024-05-09T14:08:19.958Z,9.07
2024-05-09T14:10:49.002Z,7.25
2024-05-09T14:13:17.104Z,9.35
2024-05-09T14:15:46.129Z,7.63
2024-05-09T14:18:14.622Z,7.38
2024-05-09T14:20:43.126Z,7.65
2024-05-09T14:23:11.102Z,7.78
2024-05-09T14:25:42.367Z,7.57
2024-05-09T14:28:13.043Z,6.30
2024-05-09T14:30:41.991Z,12.00
2024-05-09T14:33:11.275Z,8.05
2024-05-09T14:35:39.427Z,9.10
2024-05-09T14:38:08.906Z,9.40
2024-05-09T14:40:42.304Z,7.20
2024-05-09T14:43:13.877Z,9.35
2024-05-09T14:45:42.655Z,7.00
2024-05-09T14:48:11.744Z,9.10
2024-05-09T14:50:40.710Z,7.68
2024-05-09T14:53:10.571Z,6.53
2024-05-09T14:55:40.462Z,7.53
2024-05-09T14:58:10.293Z,6.32
2024-05-09T15:00:44.542Z,6.45
2024-05-09T15:03:16.068Z,6.90
2024-05-09T15:05:44.859Z,6.35
2024-05-09T15:08:12.986Z,9.15
2024-05-09T15:10:40.859Z,8.95
2024-05-09T15:13:10.437Z,8.38
2024-05-09T15:15:40.452Z,7.15
2024-05-09T15:18:08.585Z,9.07
2024-05-09T15:20:37.752Z,8.48
2024-05-09T15:23:07.234Z,5.78
2024-05-09T15:25:36.659Z,7.60
2024-05-09T15:28:07.638Z,7.13
2024-05-09T15:30:36.578Z,5.85
2024-05-09T15:33:06.060Z,7.60
2024-05-09T15:35:35.195Z,7.60
2024-05-09T15:38:04.417Z,9.50
2024-05-09T15:40:39.496Z,5.97
2024-05-09T15:43:10.942Z,8.23
2024-05-09T15:45:41.004Z,6.35
2024-05-09T15:48:09.974Z,6.88
2024-05-09T15:50:41.014Z,9.05
2024-05-09T15:53:12.539Z,6.73
2024-05-09T15:58:14.288Z,6.65
2024-05-09T16:00:44.774Z,10.38
2024-05-09T16:03:14.882Z,9.20
2024-05-09T16:05:45.008Z,8.15
2024-05-09T16:08:14.420Z,7.78
2024-05-09T16:10:44.648Z,7.60
2024-05-09T16:13:13.489Z,8.55
2024-05-09T16:15:41.405Z,7.70
2024-05-09T16:18:09.320Z,9.80
2024-05-09T16:20:40.437Z,6.30
2024-05-09T16:25:39.545Z,5.35
2024-05-09T16:28:10.180Z,5.70
2024-05-09T16:30:39.939Z,6.10
2024-05-09T16:33:08.779Z,3.67
2024-05-09T16:35:39.206Z,6.32
2024-05-09T16:38:07.385Z,5.70
2024-05-09T16:40:39.811Z,7.70
2024-05-09T16:43:10.463Z,7.15
2024-05-09T16:45:40.084Z,7.43
2024-05-09T16:48:08.915Z,5.65
2024-05-09T16:50:37.048Z,7.70
2024-05-09T16:53:05.835Z,5.70
2024-05-09T16:55:35.154Z,5.93
2024-05-09T16:58:03.658Z,5.28
2024-05-09T17:00:39.768Z,4.68
2024-05-09T17:03:13.305Z,5.32
2024-05-09T17:05:42.860Z,6.78
2024-05-09T17:08:11.505Z,4.65
2024-05-09T17:10:39.207Z,7.28
2024-05-09T17:13:08.078Z,5.28
2024-05-09T17:15:37.500Z,7.43
2024-05-09T17:18:07.361Z,5.80
2024-05-09T17:20:37.297Z,4.43
2024-05-09T17:23:15.000Z,7.82
2024-05-09T17:25:43.250Z,6.10
2024-05-09T17:28:11.714Z,5.65
2024-05-09T17:30:41.939Z,4.70
2024-05-09T17:33:11.615Z,4.20
2024-05-09T17:35:40.375Z,4.78
2024-05-09T17:38:08.503Z,4.40
2024-05-09T17:40:38.113Z,7.22
2024-05-09T17:43:09.560Z,4.88
2024-05-09T17:45:40.567Z,4.80
2024-05-09T17:48:10.904Z,4.53
2024-05-09T17:50:41.448Z,4.90
2024-05-09T17:53:10.689Z,5.38
2024-05-09T17:55:39.458Z,6.82
2024-05-09T17:58:07.882Z,5.78
2024-05-09T18:00:39.677Z,5.47
2024-05-09T18:03:12.066Z,5.43
2024-05-09T18:05:41.098Z,5.78
2024-05-09T18:08:09.183Z,4.90
2024-05-09T18:10:39.687Z,5.53
2024-05-09T18:13:09.168Z,5.47
2024-05-09T18:15:38.050Z,6.75
2024-05-09T18:18:07.178Z,5.90
2024-05-09T18:20:42.305Z,6.80
2024-05-09T18:23:16.026Z,9.30
2024-05-09T18:25:45.632Z,8.07
2024-05-09T18:28:13.731Z,6.53
2024-05-09T18:30:41.764Z,7.20
2024-05-09T18:33:11.277Z,7.15
2024-05-09T18:35:42.613Z,8.20
2024-05-09T18:38:10.519Z,9.25
2024-05-09T18:40:39.714Z,7.25
2024-05-09T18:43:09.258Z,6.93
2024-05-09T18:45:38.398Z,6.18
2024-05-09T18:48:08.737Z,8.02
2024-05-09T18:50:39.801Z,8.18
2024-05-09T18:53:11.575Z,7.32
2024-05-09T18:55:41.517Z,8.25
2024-05-09T18:58:09.368Z,9.32
2024-05-09T19:00:39.911Z,9.43
2024-05-09T19:03:12.765Z,8.60
2024-05-09T19:05:43.874Z,8.40
2024-05-09T19:08:13.115Z,9.88
2024-05-09T19:10:40.920Z,10.07
2024-05-09T19:13:12.133Z,7.75
2024-05-09T19:15:42.571Z,10.23
2024-05-09T19:18:12.581Z,10.20
2024-05-09T19:20:40.742Z,9.30
2024-05-09T19:23:08.484Z,9.63
2024-05-09T19:25:36.541Z,8.15
2024-05-09T19:28:05.424Z,8.52
2024-05-09T19:30:39.134Z,10.18
2024-05-09T19:33:12.708Z,9.88
2024-05-09T19:35:42.641Z,8.15
2024-05-09T19:38:10.858Z,9.93
2024-05-09T19:40:38.727Z,8.30
2024-05-09T19:43:07.057Z,10.60
2024-05-09T19:45:35.793Z,8.18
2024-05-09T19:48:06.246Z,9.07
2024-05-09T19:50:41.468Z,8.70
2024-05-09T19:53:15.082Z,9.27
2024-05-09T19:55:43.185Z,9.85
2024-05-09T19:58:11.909Z,9.02
2024-05-09T20:00:42.717Z,9.60
2024-05-09T20:03:15.221Z,10.55
2024-05-09T20:05:47.356Z,11.15
2024-05-09T20:08:15.292Z,10.38
2024-05-09T20:10:43.294Z,11.65
2024-05-09T20:13:11.144Z,10.27
2024-05-09T20:15:39.710Z,8.65
2024-05-09T20:18:07.772Z,7.97
2024-05-09T20:20:39.888Z,8.98
2024-05-09T20:23:11.381Z,10.95
2024-05-09T20:25:39.331Z,10.43
2024-05-09T20:28:07.523Z,9.75
2024-05-09T20:30:36.182Z,9.60
2024-05-09T20:33:07.166Z,8.48
2024-05-09T20:35:36.279Z,9.90
2024-05-09T20:38:04.627Z,10.30
2024-05-09T20:40:36.927Z,10.70
2024-05-09T20:43:10.240Z,13.05
2024-05-09T20:45:38.807Z,10.45
2024-05-09T20:48:08.077Z,11.00
2024-05-09T20:50:40.086Z,10.35
2024-05-09T20:53:12.135Z,12.57
2024-05-09T20:55:40.727Z,10.57
2024-05-09T20:58:09.702Z,10.00
2024-05-09T21:00:41.326Z,9.88
2024-05-09T21:03:13.366Z,9.63
2024-05-09T21:05:42.155Z,8.77
2024-05-09T21:08:09.932Z,10.90
2024-05-09T21:10:38.158Z,10.63
2024-05-09T21:13:07.020Z,9.15
2024-05-09T21:15:35.981Z,10.05
2024-05-09T21:18:04.584Z,9.07
2024-05-09T21:20:34.594Z,9.77
2024-05-09T21:23:03.442Z,11.27
2024-05-09T21:25:32.020Z,9.95
2024-05-09T21:28:00.310Z,10.75
2024-05-09T21:30:37.897Z,9.57
2024-05-09T21:33:11.551Z,11.10
2024-05-09T21:35:41.345Z,14.30
2024-05-09T21:38:09.175Z,10.93
2024-05-09T21:40:38.014Z,9.98
2024-05-09T21:43:07.489Z,9.32
2024-05-09T21:45:36.644Z,10.85
2024-05-09T21:48:06.240Z,10.23
2024-05-09T21:50:39.910Z,9.75
2024-05-09T21:53:13.376Z,13.05
2024-05-09T21:55:42.687Z,10.95
2024-05-09T21:58:12.150Z,11.48
2024-05-09T22:00:42.604Z,10.43
2024-05-09T22:03:11.915Z,10.90
2024-05-09T22:05:43.364Z,10.77
2024-05-09T22:08:11.271Z,10.43
2024-05-09T22:10:39.019Z,11.07
2024-05-09T22:13:07.463Z,11.88
2024-05-09T22:15:37.965Z,11.95
2024-05-09T22:18:08.304Z,12.07
2024-05-09T22:20:39.518Z,11.98
2024-05-09T22:23:08.579Z,10.13
2024-05-09T22:25:38.371Z,12.15
2024-05-09T22:28:07.039Z,13.75
2024-05-09T22:30:38.480Z,13.30
2024-05-09T22:33:09.703Z,11.40
2024-05-09T22:35:39.145Z,12.45
2024-05-09T22:38:06.889Z,13.32
2024-05-09T22:40:45.357Z,11.13
2024-05-09T22:43:18.582Z,10.43
2024-05-09T22:45:46.854Z,12.82
2024-05-09T22:48:14.625Z,12.32
2024-05-09T22:50:42.353Z,12.75
2024-05-09T22:53:09.924Z,12.13
2024-05-09T22:55:37.580Z,11.23
2024-05-09T22:58:05.301Z,13.60
2024-05-09T23:00:33.553Z,11.68
2024-05-09T23:03:02.152Z,13.15
2024-05-09T23:05:31.806Z,12.88
2024-05-09T23:08:01.289Z,13.38
2024-05-09T23:10:35.553Z,13.13
2024-05-09T23:13:06.963Z,12.75
2024-05-09T23:15:37.483Z,13.07
2024-05-09T23:18:06.090Z,14.43
2024-05-09T23:20:38.201Z,14.80
2024-05-09T23:23:08.611Z,14.32
2024-05-09T23:25:37.252Z,12.98
2024-05-09T23:28:05.372Z,12.30
2024-05-09T23:30:38.172Z,11.63
2024-05-09T23:33:10.506Z,12.02
2024-05-09T23:35:39.212Z,12.18
2024-05-09T23:38:06.968Z,14.20
2024-05-09T23:40:38.836Z,12.23
2024-05-09T23:43:10.364Z,11.73
2024-05-09T23:45:38.596Z,12.65
2024-05-09T23:48:07.074Z,11.80
2024-05-09T23:50:37.856Z,13.20
2024-05-09T23:53:08.713Z,11.88
2024-05-09T23:55:37.733Z,12.57
2024-05-09T23:58:06.642Z,15.45
